Terminal Aerodrome Forecast
Issued by NWS Duluth, MN

Home | Current Version | Previous Version | Text Only | Print | Product List | Glossary On
Versions: 1 2 3 4 5 6 7 8 9 10 11 12 13 14 15 16 17 18 19 20 21 22 23 24 25 26 27 28 29 30 31 32 33 34 35 36
000
FTUS43 KDLH 182323
TAFDLH
TAF
KDLH 182323Z 1900/1924 32013G21KT P6SM -SN BKN025
     FM190300 31012G17KT P6SM BKN030
     FM190500 30011KT P6SM SCT030
     FM191700 27008KT P6SM VCSH SCT025 BKN050
     FM192100 24009KT P6SM BKN060=

USA.gov is the U.S. government's official web portal to all federal, state and local government web resources and services.